NWS Home NWS Lubbock West Texas Mesonet South Sector Latest Conditions as of 0801 PM, Wed Jul 17, 2019

Latest   N   C   S   Daily Sum   3hrΔ   24hrΔ   Soil Data 
Site Map   24hr Precip   72hr Precip   Google Plot


Station Time of Last Temp Dew Pt. RH Wind Direction Wind Speed Wind Gust Max Wind Max Temp Min Temp Max RH Min RH Altimeter 1HR Rain Today's Rain Solar Rad
Andrews 2E  07:55 PM 93 56 30% SE1320 24 mph 178° @ 0615 PM 99 74 69 23 29.94" 0 0.00 26
Aspermont 3NE  07:55 PM 94 64 37% S1215 25 mph 158° @ 0215 PM 99 77 78 30 29.89" 0 0.00 119
Big Bend NP - Castolon  07:55 PM 76 69 78% SE1214 60 mph 8° @ 0639 PM 107 71 84 20 29.91" 0.86 0.92 6
Big Bend NP - Persimmon Gap  07:55 PM 74 65 74% N1618 41 mph 260° @ 0458 PM 102 72 87 24 29.97" 0 0.54 2
Brownfield 2S  04:05 PM M M M% S1521 27 mph 163° @ 0150 PM -18** M 70 M --0 0.00 845
Clyde 2WNW  07:55 PM 90 64 42% S1116 30 mph 204° @ 0408 PM 95 74 87 38 29.94" 0 0.00 108
Colorado City 5NW  07:55 PM 92 61 35% SE1721 27 mph 149° @ 0514 PM 98 75 81 31 29.93" 0 0.00 135
Coyanosa 2N  07:55 PM 86 61 42% SE1011 43 mph 134° @ 0443 PM 103 77 65 27 29.92" 0 0.00 30
Crane 1NNW   07:55 PM 93 63 37% SW1619 31 mph 150° @ 0607 PM 100 77 69 33 29.92" 0 0.00 114
Dell City  07:55 PM 87 60 41% SE1417 21 mph 170° @ 0753 PM 100 75 74 22 29.97" 0 0.00 92
Denver City 7WNW  07:55 PM 91 50 26% S1215 28 mph 150° @ 0550 PM 97 72 71 19 29.96" 0 0.00 23
Fluvanna 3WNW  07:55 PM 91 61 38% SE1723 28 mph 161° @ 0525 PM 96 75 75 28 29.94" 0 0.00 127
Fort Chadbourne  07:55 PM 91 65 41% S1216 27 mph 167° @ 0525 PM 95 73 93 38 29.94" 0 0.00 129
Fort Lancaster  07:55 PM 92 64 39% SE1216 29 mph 142° @ 0134 PM 97 77 81 36 29.93" 0 0.00 58
Fort McKavett  07:55 PM 91 64 42% SE1217 27 mph 166° @ 0425 PM 96 73 86 36 29.97" 0 0.00 114
Gail 2ESE  07:55 PM 94 59 33% SE1522 27 mph 154° @ 0120 PM 99 77 69 23 29.91" 0 0.00 127
Graham 5SSW  07:55 PM 93 57 31% SE2129 34 mph 137° @ 0540 PM 96 76 70 25 29.93" 0 0.00 148
Guadalupe Mtns Natl Park  07:55 PM 81 53 39% N55 31 mph 288° @ 1159 AM 91 66 80 26 30.13" 0 0.03 69
Haskell 1NW  07:55 PM 93 64 40% S1320 27 mph 160° @ 0645 PM 97 79 75 34 29.88" 0 0.00 131
Hobbs NM 5NW  07:55 PM 81 61 52% W1013 27 mph 207° @ 0657 PM 99 73 66 18 30.04" 0 0.00 7
Jayton 1SSE  07:55 PM 93 63 39% S1118 28 mph 162° @ 0315 PM 98 76 74 31 29.90" 0 0.00 141
Junction 1SSW  07:55 PM 92 66 42% SE1419 26 mph 198° @ 1044 AM 97 73 87 35 29.96" 0 0.00 85
Lake Alan Henry 1NW  07:55 PM 93 64 38% S1721 29 mph 181° @ 0320 PM 99 78 71 25 29.91" 0 0.00 121
Lamesa 2SE  07:55 PM 92 60 36% SE1521 25 mph 137° @ 0350 PM 96 75 77 29 29.95" 0 0.00 143
Lomax 1SSE  07:55 PM 94 60 32% SE1820 28 mph 175° @ 0622 PM 99 77 73 27 29.93" 0 0.00 115
McCamey 1SSW  07:55 PM 93 64 38% S1417 30 mph 149° @ 0217 PM 98 77 71 35 29.93" 0 0.00 114
Menard 2NW   07:55 PM 90 67 47% SE1214 26 mph 159° @ 0351 PM 95 73 87 37 29.97" 0 0.00 95
Mertzon 3NNE  07:55 PM 91 63 40% SE1721 31 mph 181° @ 0905 AM 96 74 89 33 29.94" 0 0.00 92
New Home  07:55 PM 93 57 30% S1621 27 mph 184° @ 1259 PM 98 74 71 24 29.96" 0 0.00 131
O'Donnell 1N  07:55 PM 93 53 27% S1420 28 mph 169° @ 0150 PM 97 75 68 19 29.94" 0 0.00 119
Plains 3N  07:55 PM 91 57 33% SE1419 37 mph 174° @ 0140 PM 97 73 72 23 29.96" 0 0.00 67
Post 1NE  07:55 PM 93 57 30% S1622 27 mph 164° @ 0405 PM 99 77 64 22 29.92" 0 0.00 83
Rotan 5W  07:55 PM 92 64 39% SE1921 29 mph 143° @ 0643 PM 98 78 73 30 29.92" 0 0.00 120
San Angelo 7NW  07:55 PM 92 59 34% SE1520 25 mph 174° @ 1050 AM 96 76 77 31 29.92" 0 0.00 115
Seagraves 1SW  07:55 PM 93 57 31% SE813 24 mph 176° @ 0925 AM 98 73 74 28 29.95" 0 0.00 24
Segovia 7SSW  07:55 PM 88 65 47% SE1523 28 mph 156° @ 0323 AM 93 72 88 39 30.00" 0 0.00 91
Seminole 2NNE  07:55 PM 93 54 29% SE912 25 mph 170° @ 0850 AM 98 73 70 22 29.94" 0 0.00 18
Sierra Blanca 1SSE  07:55 PM 82 57 43% E1922 30 mph 153° @ 0708 PM 96 72 70 23 30.05" 0 0.00 57
Snyder 3E  07:55 PM 91 60 37% SE1621 33 mph 167° @ 0405 PM 96 75 82 32 29.93" 0 0.00 112
Snyder 3SSW  07:55 PM 92 61 36% SE1315 30 mph 153° @ 0336 PM 97 75 78 30 29.93" 0 0.00 124
St. Lawrence 5SW  07:55 PM 91 61 37% SE1524 34 mph 174° @ 1210 PM 95 74 80 33 29.95" 0 0.00 97
Stamford 5ESE  07:55 PM 94 65 38% S1922 30 mph 158° @ 0455 PM 99 79 76 32 29.89" 0 0.00 117
Sterling City 4WSW  07:55 PM 93 60 33% SE1520 30 mph 123° @ 0447 PM 97 75 82 28 29.94" 0 0.00 84
Sundown 8WSW  07:55 PM 88 56 35% SE1012 26 mph 155° @ 0245 PM 95 71 77 26 29.96" 0 0.00 77
Sweetwater 11SW   07:55 PM 90 63 41% S1113 29 mph 167° @ 1255 PM 95 74 84 32 29.96" 0 0.00 128
Tahoka 3NNE  07:55 PM 93 57 30% S1214 26 mph 185° @ 0955 AM 98 76 70 23 29.95" 0 0.00 129
Tarzan 2WNW  07:55 PM 93 64 39% SE1620 26 mph 141° @ 0701 PM 99 75 75 28 29.93" 0 0.00 63
Tatum NM 2SW  07:55 PM 80 56 45% SW1521 25 mph 172° @ 0115 PM 99 70 74 21 30.00" 0 0.00 21
Throckmorton 1SW  07:55 PM 93 68 44% SE811 24 mph 154° @ 0404 PM 97 76 82 37 29.90" 0 0.00 109
Van Horn 3ENE  07:55 PM 75 68 81% NE23 33 mph 223° @ 0546 PM 99 71 85 22 30.02" 0.02 0.14 17
Wall 2E  07:55 PM 93 64 38% SE1518 28 mph 152° @ 0308 PM 97 76 81 34 29.94" 0 0.00 107
Weinert 2NNE  07:55 PM 94 65 39% SE1517 30 mph 171° @ 0431 PM 99 79 73 30 29.89" 0 0.00 110
Welch  07:55 PM 93 61 36% SE1518 27 mph 157° @ 0416 PM 97 75 74 28 29.95" 0 0.00 46

West Texas Mesonet Home   Site Map/Menu  NWS Lubbock Soil Data  Daily Summary Page  24hr Precip  72hr Precip  Google Plot